createdAt,value
2022-12-23T00:01:24.575Z,100165.94
2022-12-23T00:04:01.406Z,100178.00
2022-12-23T00:06:34.263Z,100181.81
2022-12-23T00:09:09.723Z,100177.00
2022-12-23T00:11:42.987Z,100166.72
2022-12-23T00:14:21.441Z,100169.47
2022-12-23T00:16:55.085Z,100174.50
2022-12-23T00:19:31.210Z,100175.06
2022-12-23T00:22:04.980Z,100166.44
2022-12-23T00:24:37.886Z,100177.31
2022-12-23T00:27:10.828Z,100175.88
2022-12-23T00:29:43.785Z,100178.91
2022-12-23T00:32:19.177Z,100174.88
2022-12-23T00:34:52.207Z,100174.94
2022-12-23T00:37:25.310Z,100167.66
2022-12-23T00:40:05.868Z,100160.31
2022-12-23T00:42:39.514Z,100154.56
2022-12-23T00:45:12.456Z,100158.38
2022-12-23T00:47:48.519Z,100155.91
2022-12-23T00:50:21.778Z,100142.22
2022-12-23T00:52:54.702Z,100136.97
2022-12-23T00:55:27.856Z,100127.09
2022-12-23T00:58:00.765Z,100115.63
2022-12-23T01:00:34.072Z,100120.44
2022-12-23T01:03:07.028Z,100114.78
2022-12-23T01:05:40.143Z,100122.84
2022-12-23T01:08:13.189Z,100124.88
2022-12-23T01:10:46.145Z,100123.88
2022-12-23T01:13:19.780Z,100126.22
2022-12-23T01:15:52.671Z,100117.16
2022-12-23T01:18:25.611Z,100123.28
2022-12-23T01:21:05.860Z,100123.69
2022-12-23T01:23:40.161Z,100128.72
2022-12-23T01:26:13.133Z,100135.75
2022-12-23T01:28:46.074Z,100139.63
2022-12-23T01:31:22.927Z,100127.50
2022-12-23T01:33:56.727Z,100120.44
2022-12-23T01:36:29.595Z,100119.19
2022-12-23T01:39:02.604Z,100103.31
2022-12-23T01:41:35.627Z,100108.75
2022-12-23T01:44:47.130Z,100101.69
2022-12-23T01:47:55.968Z,100104.50
2022-12-23T01:50:37.836Z,100100.69
2022-12-23T01:53:16.819Z,100107.72
2022-12-23T01:55:56.876Z,100103.47
2022-12-23T01:58:56.756Z,100096.56
2022-12-23T02:01:30.408Z,100096.56
2022-12-23T02:04:07.722Z,100097.63
2022-12-23T02:06:45.346Z,100098.22
2022-12-23T02:09:30.591Z,100097.88
2022-12-23T02:12:23.095Z,100094.63
2022-12-23T02:15:13.866Z,100091.13
2022-12-23T02:18:05.404Z,100092.16
2022-12-23T02:21:19.197Z,100079.69
2022-12-23T02:24:26.177Z,100081.31
2022-12-23T02:27:04.895Z,100085.97
2022-12-23T02:30:22.342Z,100081.09
2022-12-23T02:33:17.273Z,100080.31
2022-12-23T02:36:09.241Z,100087.16
2022-12-23T02:39:14.469Z,100089.34
2022-12-23T02:41:56.563Z,100092.63
2022-12-23T02:45:04.667Z,100089.00
2022-12-23T02:47:44.642Z,100091.59
2022-12-23T02:50:23.621Z,100098.69
2022-12-23T02:53:03.797Z,100093.41
2022-12-23T02:55:40.129Z,100072.22
2022-12-23T02:58:16.440Z,100086.88
2022-12-23T03:00:49.976Z,100093.78
2022-12-23T03:03:24.998Z,100104.31
2022-12-23T03:05:58.364Z,100095.66
2022-12-23T03:08:40.681Z,100092.63
2022-12-23T03:11:16.587Z,100092.03
2022-12-23T03:14:05.547Z,100086.78
2022-12-23T03:16:57.075Z,100093.44
2022-12-23T03:19:31.682Z,100090.81
2022-12-23T03:22:38.280Z,100088.81
2022-12-23T03:25:33.860Z,100080.94
2022-12-23T03:28:19.250Z,100079.31
2022-12-23T03:30:57.053Z,100078.94
2022-12-23T03:33:42.452Z,100076.69
2022-12-23T03:36:56.976Z,100072.47
2022-12-23T03:39:37.930Z,100060.34
2022-12-23T03:42:18.502Z,100061.97
2022-12-23T03:45:27.864Z,100062.75
2022-12-23T03:47:58.564Z,100069.00
2022-12-23T03:50:33.772Z,100067.22
2022-12-23T03:53:13.981Z,100071.44
2022-12-23T03:55:56.574Z,100072.84
2022-12-23T03:58:29.389Z,100076.09
2022-12-23T04:01:13.435Z,100080.94
2022-12-23T04:04:24.788Z,100070.44
2022-12-23T04:07:00.526Z,100069.03
2022-12-23T04:09:35.212Z,100065.56
2022-12-23T04:12:08.537Z,100070.03
2022-12-23T04:14:48.922Z,100067.44
2022-12-23T04:17:21.830Z,100065.41
2022-12-23T04:19:55.344Z,100070.03
2022-12-23T04:22:28.370Z,100071.25
2022-12-23T04:25:01.362Z,100068.03
2022-12-23T04:27:34.327Z,100062.38
2022-12-23T04:30:10.841Z,100063.19
2022-12-23T04:32:43.734Z,100069.25
2022-12-23T04:35:20.455Z,100062.75
2022-12-23T04:37:53.446Z,100066.63
2022-12-23T04:40:26.468Z,100066.63
2022-12-23T04:42:59.369Z,100056.31
2022-12-23T04:45:34.796Z,100056.31
2022-12-23T04:48:07.747Z,100063.00
2022-12-23T04:50:40.702Z,100066.63
2022-12-23T04:53:13.551Z,100069.44
2022-12-23T04:55:51.184Z,100063.56
2022-12-23T04:58:24.995Z,100066.59
2022-12-23T05:01:12.296Z,100066.38
2022-12-23T05:03:45.899Z,100080.94
2022-12-23T05:06:13.034Z,100072.06
2022-12-23T05:08:46.024Z,100078.94
2022-12-23T05:11:19.636Z,100078.47
2022-12-23T05:13:53.078Z,100075.03
2022-12-23T05:16:31.038Z,100065.53
2022-12-23T05:19:04.771Z,100073.91
2022-12-23T05:21:38.468Z,100078.00
2022-12-23T05:24:11.935Z,100073.38
2022-12-23T05:26:59.780Z,100074.94
2022-12-23T05:29:33.828Z,100085.41
2022-12-23T05:32:06.975Z,100088.47
2022-12-23T05:34:41.181Z,100088.50
2022-12-23T05:37:14.423Z,100095.31
2022-12-23T05:39:48.333Z,100098.56
2022-12-23T05:42:21.363Z,100080.03
2022-12-23T05:44:54.910Z,100091.41
2022-12-23T05:47:28.162Z,100078.88
2022-12-23T05:50:01.455Z,100076.50
2022-12-23T05:52:34.320Z,100085.94
2022-12-23T05:55:09.050Z,100085.56
2022-12-23T05:57:42.147Z,100087.38
2022-12-23T06:00:15.262Z,100073.25
2022-12-23T06:02:53.630Z,100088.63
2022-12-23T06:05:31.131Z,100086.59
2022-12-23T06:08:04.765Z,100082.56
2022-12-23T06:10:38.365Z,100084.50
2022-12-23T06:13:11.813Z,100080.28
2022-12-23T06:15:46.953Z,100078.63
2022-12-23T06:18:20.951Z,100081.91
2022-12-23T06:20:54.792Z,100087.19
2022-12-23T06:23:37.453Z,100090.81
2022-12-23T06:26:14.103Z,100089.81
2022-12-23T06:28:46.881Z,100090.00
2022-12-23T06:31:19.834Z,100088.63
2022-12-23T06:33:52.825Z,100087.56
2022-12-23T06:36:25.754Z,100096.47
2022-12-23T06:38:58.692Z,100097.09
2022-12-23T06:41:32.019Z,100103.56
2022-12-23T06:44:05.419Z,100096.66
2022-12-23T06:46:39.234Z,100099.88
2022-12-23T06:49:13.765Z,100100.28
2022-12-23T06:51:47.087Z,100095.06
2022-12-23T06:54:23.106Z,100097.25
2022-12-23T06:56:56.403Z,100101.53
2022-12-23T06:59:29.261Z,100103.56
2022-12-23T07:02:03.325Z,100105.50
2022-12-23T07:04:36.439Z,100102.31
2022-12-23T07:07:09.575Z,100095.59
2022-12-23T07:09:42.396Z,100097.00
2022-12-23T07:12:15.582Z,100093.38
2022-12-23T07:14:48.698Z,100097.81
2022-12-23T07:17:22.163Z,100096.59
2022-12-23T07:19:55.779Z,100101.47
2022-12-23T07:22:31.099Z,100101.25
2022-12-23T07:25:07.244Z,100116.41
2022-12-23T07:27:40.529Z,100124.09
2022-12-23T07:30:14.147Z,100122.84
2022-12-23T07:32:53.164Z,100110.75
2022-12-23T07:35:26.903Z,100119.66
2022-12-23T07:38:00.032Z,100128.94
2022-12-23T07:40:33.387Z,100126.09
2022-12-23T07:43:06.573Z,100129.09
2022-12-23T07:45:39.452Z,100127.59
2022-12-23T07:48:12.563Z,100134.72
2022-12-23T07:50:45.592Z,100120.59
2022-12-23T07:53:18.696Z,100123.66
2022-12-23T07:55:56.400Z,100113.84
2022-12-23T07:58:30.860Z,100114.63
2022-12-23T08:01:06.535Z,100109.13
2022-12-23T08:03:40.525Z,100119.16
2022-12-23T08:06:16.726Z,100116.00
2022-12-23T08:08:51.742Z,100115.94
2022-12-23T08:11:24.755Z,100113.94
2022-12-23T08:14:01.345Z,100122.66
2022-12-23T08:16:43.009Z,100122.69
2022-12-23T08:19:17.698Z,100126.50
2022-12-23T08:21:50.851Z,100131.66
2022-12-23T08:24:24.259Z,100129.47
2022-12-23T08:26:57.657Z,100136.72
2022-12-23T08:29:36.023Z,100142.91
2022-12-23T08:32:10.271Z,100137.16
2022-12-23T08:34:43.571Z,100136.13
2022-12-23T08:37:16.608Z,100126.63
2022-12-23T08:39:50.081Z,100132.44
2022-12-23T08:42:23.115Z,100134.16
2022-12-23T08:44:56.327Z,100121.63
2022-12-23T08:47:29.818Z,100123.97
2022-12-23T08:50:03.205Z,100122.00
2022-12-23T08:52:36.258Z,100125.41
2022-12-23T08:55:10.519Z,100127.50
2022-12-23T08:57:43.870Z,100124.31
2022-12-23T09:00:21.592Z,100120.28
2022-12-23T09:02:54.888Z,100122.06
2022-12-23T09:05:28.383Z,100128.19
2022-12-23T09:08:02.091Z,100129.75
2022-12-23T09:10:40.548Z,100135.06
2022-12-23T09:13:19.992Z,100141.56
2022-12-23T09:15:58.293Z,100128.97
2022-12-23T09:18:31.622Z,100126.03
2022-12-23T09:21:07.430Z,100112.41
2022-12-23T09:23:42.105Z,100111.03
2022-12-23T09:26:24.755Z,100106.22
2022-12-23T09:28:58.353Z,100115.53
2022-12-23T09:31:36.689Z,100111.22
2022-12-23T09:34:10.801Z,100111.13
2022-12-23T09:36:43.797Z,100110.09
2022-12-23T09:39:16.827Z,100113.19
2022-12-23T09:41:49.797Z,100104.09
2022-12-23T09:44:46.916Z,100103.72
2022-12-23T09:47:23.980Z,100110.03
2022-12-23T09:50:20.079Z,100101.50
2022-12-23T09:53:04.079Z,100097.41
2022-12-23T09:56:09.520Z,100096.13
2022-12-23T09:59:04.803Z,100093.41
2022-12-23T10:01:52.513Z,100086.28
2022-12-23T10:05:01.726Z,100090.56
2022-12-23T10:07:45.952Z,100089.34
2022-12-23T10:10:48.257Z,100083.88
2022-12-23T10:13:27.248Z,100074.53
2022-12-23T10:16:06.994Z,100067.31
2022-12-23T10:19:01.774Z,100064.41
2022-12-23T10:21:34.819Z,100060.06
2022-12-23T10:24:16.301Z,100069.47
2022-12-23T10:26:54.689Z,100071.72
2022-12-23T10:29:32.031Z,100072.28
2022-12-23T10:32:31.449Z,100060.28
2022-12-23T10:35:21.973Z,100061.16
2022-12-23T10:38:12.247Z,100051.84
2022-12-23T10:41:09.902Z,100052.66
2022-12-23T10:44:02.114Z,100045.50
2022-12-23T10:47:12.843Z,100043.91
2022-12-23T10:50:07.351Z,100041.38
2022-12-23T10:52:43.231Z,100035.22
2022-12-23T10:55:32.877Z,100038.59
2022-12-23T10:58:14.880Z,100036.44
2022-12-23T11:01:03.815Z,100027.00
2022-12-23T11:03:44.300Z,100030.47
2022-12-23T11:06:23.702Z,100033.75
2022-12-23T11:08:57.752Z,100029.06
2022-12-23T11:11:57.156Z,100038.81
2022-12-23T11:14:35.880Z,100032.16
2022-12-23T11:17:25.515Z,100031.22
2022-12-23T11:20:10.418Z,100015.06
2022-12-23T11:22:52.085Z,100017.22
2022-12-23T11:25:30.465Z,100018.03
2022-12-23T11:28:17.363Z,100019.13
2022-12-23T11:30:55.640Z,100015.72
2022-12-23T11:33:31.985Z,100011.09
2022-12-23T11:36:14.229Z,100016.25
2022-12-23T11:38:54.185Z,100002.66
2022-12-23T11:41:33.736Z,100006.44
2022-12-23T11:44:14.590Z,100008.97
2022-12-23T11:46:47.861Z,100003.97
2022-12-23T11:49:23.661Z,100002.31
2022-12-23T11:52:05.637Z,99991.44
2022-12-23T11:54:38.854Z,99992.50
2022-12-23T11:57:19.047Z,99990.31
2022-12-23T11:59:59.354Z,99992.16
2022-12-23T12:02:40.919Z,99990.47
2022-12-23T12:05:41.125Z,99985.66
2022-12-23T12:08:20.387Z,99983.59
2022-12-23T12:10:59.618Z,99990.38
2022-12-23T12:13:42.589Z,99986.47
2022-12-23T12:16:31.006Z,99973.69
2022-12-23T12:19:19.291Z,99970.66
2022-12-23T12:21:59.151Z,99975.63
2022-12-23T12:24:39.092Z,99975.94
2022-12-23T12:27:12.287Z,99970.13
2022-12-23T12:30:04.468Z,99970.09
2022-12-23T12:33:11.794Z,99965.78
2022-12-23T12:35:52.035Z,99965.00
2022-12-23T12:38:31.836Z,99968.47
2022-12-23T12:41:21.881Z,99966.06
2022-12-23T12:44:21.777Z,99971.41
2022-12-23T12:47:28.178Z,99975.94
2022-12-23T12:50:06.592Z,99973.81
2022-12-23T12:52:41.467Z,99969.84
2022-12-23T12:55:27.949Z,99966.09
2022-12-23T12:58:01.822Z,99969.03
2022-12-23T13:00:48.987Z,99974.34
2022-12-23T13:03:42.845Z,99975.69
2022-12-23T13:06:40.634Z,99965.84
2022-12-23T13:09:23.265Z,99963.16
2022-12-23T13:12:07.482Z,99966.34
2022-12-23T13:14:43.029Z,99970.09
2022-12-23T13:17:22.254Z,99967.41
2022-12-23T13:20:22.121Z,99972.50
2022-12-23T13:23:34.287Z,99967.97
2022-12-23T13:26:14.097Z,99964.50
2022-12-23T13:29:16.628Z,99960.50
2022-12-23T13:32:14.442Z,99963.72
2022-12-23T13:35:15.410Z,99965.91
2022-12-23T13:37:54.560Z,99964.16
2022-12-23T13:40:53.158Z,99963.13
2022-12-23T13:43:45.109Z,99961.84
2022-12-23T13:46:43.709Z,99956.59
2022-12-23T13:49:32.091Z,99956.09
2022-12-23T13:52:28.280Z,99962.59
2022-12-23T13:55:35.112Z,99962.09
2022-12-23T13:58:19.938Z,99961.56
2022-12-23T14:01:18.902Z,99959.41
2022-12-23T14:03:52.190Z,99961.47
2022-12-23T14:06:25.730Z,99964.34
2022-12-23T14:08:59.418Z,99966.03
2022-12-23T14:11:34.179Z,99967.25
2022-12-23T14:14:20.079Z,99964.09
2022-12-23T14:17:42.603Z,99965.72
2022-12-23T14:20:44.435Z,99964.75
2022-12-23T14:23:29.987Z,99959.72
2022-12-23T14:26:26.215Z,99966.28
2022-12-23T14:29:26.577Z,99966.59
2022-12-23T14:31:59.659Z,99970.84
2022-12-23T14:34:34.268Z,99969.88
2022-12-23T14:37:22.684Z,99961.00
2022-12-23T14:39:55.784Z,99971.44
2022-12-23T14:42:43.105Z,99979.16
2022-12-23T14:45:35.676Z,99977.50
2022-12-23T14:48:33.761Z,99978.50
2022-12-23T14:51:09.866Z,99973.09
2022-12-23T14:53:52.163Z,99977.13
2022-12-23T14:56:28.303Z,99969.56
2022-12-23T14:59:13.242Z,99973.75
2022-12-23T15:01:51.511Z,99972.97
2022-12-23T15:04:28.718Z,99977.66
2022-12-23T15:07:14.052Z,99976.50
2022-12-23T15:09:58.687Z,99983.41
2022-12-23T15:12:39.123Z,99984.72
2022-12-23T15:15:22.932Z,99987.41
2022-12-23T15:18:04.090Z,99986.06
2022-12-23T15:20:37.784Z,99982.41
2022-12-23T15:23:19.794Z,99985.25
2022-12-23T15:25:56.859Z,99993.41
2022-12-23T15:28:41.487Z,99988.25
2022-12-23T15:31:38.253Z,99999.91
2022-12-23T15:34:23.163Z,100002.44
2022-12-23T15:36:56.700Z,99995.69
2022-12-23T15:39:36.902Z,100001.66
2022-12-23T15:42:26.560Z,99997.25
2022-12-23T15:44:59.605Z,99995.47
2022-12-23T15:47:42.624Z,99994.88
2022-12-23T15:50:20.170Z,100008.84
2022-12-23T15:52:55.696Z,100006.06
2022-12-23T15:55:32.603Z,100002.22
2022-12-23T15:58:05.693Z,100003.59
2022-12-23T16:00:41.702Z,100002.41
2022-12-23T16:03:26.399Z,100007.66
2022-12-23T16:05:53.843Z,100004.19
2022-12-23T16:08:30.217Z,100005.91
2022-12-23T16:11:18.476Z,100016.97
2022-12-23T16:14:01.956Z,100018.75
2022-12-23T16:16:43.289Z,100016.16
2022-12-23T16:19:36.762Z,100015.31
2022-12-23T16:22:26.990Z,100006.38
2022-12-23T16:25:16.650Z,100008.28
2022-12-23T16:27:56.787Z,99997.81
2022-12-23T16:30:37.192Z,100009.63
2022-12-23T16:33:35.271Z,100009.31
2022-12-23T16:36:25.937Z,100019.09
2022-12-23T16:39:08.890Z,100013.41
2022-12-23T16:41:41.897Z,100015.19
2022-12-23T16:44:15.153Z,100027.78
2022-12-23T16:46:50.888Z,100029.31
2022-12-23T16:49:31.212Z,100030.16
2022-12-23T16:52:06.611Z,100028.09
2022-12-23T16:54:39.582Z,100029.34
2022-12-23T16:57:12.835Z,100036.72
2022-12-23T16:59:46.314Z,100040.88
2022-12-23T17:02:23.569Z,100032.72
2022-12-23T17:04:56.476Z,100043.50
2022-12-23T17:07:29.359Z,100043.63
2022-12-23T17:10:02.408Z,100038.22
2022-12-23T17:12:35.372Z,100040.16
2022-12-23T17:15:22.690Z,100034.94
2022-12-23T17:17:55.909Z,100038.53
2022-12-23T17:20:30.490Z,100033.34
2022-12-23T17:23:24.376Z,100034.53
2022-12-23T17:25:57.416Z,100035.75
2022-12-23T17:28:32.770Z,100037.25
2022-12-23T17:31:13.777Z,100049.63
2022-12-23T17:33:47.857Z,100043.13
2022-12-23T17:36:21.162Z,100061.66
2022-12-23T17:38:54.608Z,100052.19
2022-12-23T17:41:34.066Z,100049.38
2022-12-23T17:44:07.450Z,100039.81
2022-12-23T17:46:44.844Z,100043.88
2022-12-23T17:49:17.936Z,100044.28
2022-12-23T17:51:50.861Z,100043.78
2022-12-23T17:54:24.816Z,100042.69
2022-12-23T17:56:57.704Z,100041.81
2022-12-23T17:59:30.851Z,100041.31
2022-12-23T18:02:20.760Z,100039.13
2022-12-23T18:04:54.281Z,100036.72
2022-12-23T18:07:27.577Z,100035.56
2022-12-23T18:10:00.412Z,100034.88
2022-12-23T18:12:44.481Z,100044.31
2022-12-23T18:15:26.669Z,100041.16
2022-12-23T18:17:59.430Z,100036.31
2022-12-23T18:20:32.591Z,100034.53
2022-12-23T18:23:05.596Z,100032.69
2022-12-23T18:25:38.693Z,100029.34
2022-12-23T18:28:15.479Z,100031.06
2022-12-23T18:30:48.617Z,100043.50
2022-12-23T18:33:22.581Z,100045.88
2022-12-23T18:35:50.550Z,100041.94
2022-12-23T18:38:26.145Z,100045.88
2022-12-23T18:41:01.780Z,100043.91
2022-12-23T18:43:34.982Z,100037.00
2022-12-23T18:46:08.552Z,100036.25
2022-12-23T18:48:41.520Z,100038.81
2022-12-23T18:51:16.529Z,100045.28
2022-12-23T18:53:51.004Z,100040.41
2022-12-23T18:56:24.028Z,100036.75
2022-12-23T18:58:57.270Z,100033.63
2022-12-23T19:01:30.364Z,100022.88
2022-12-23T19:04:03.483Z,100024.78
2022-12-23T19:06:39.987Z,100031.13
2022-12-23T19:09:25.014Z,100036.00
2022-12-23T19:11:57.920Z,100034.44
2022-12-23T19:14:31.589Z,100027.13
2022-12-23T19:17:04.892Z,100036.53
2022-12-23T19:19:40.437Z,100038.97
2022-12-23T19:22:16.128Z,100047.25
2022-12-23T19:25:05.103Z,100045.00
2022-12-23T19:27:40.527Z,100043.16
2022-12-23T19:30:20.486Z,100048.56
2022-12-23T19:32:53.709Z,100053.16
2022-12-23T19:35:26.587Z,100046.03
2022-12-23T19:38:03.120Z,100059.69
2022-12-23T19:40:36.107Z,100059.69
2022-12-23T19:43:11.469Z,100056.69
2022-12-23T19:45:59.518Z,100059.72
2022-12-23T19:48:33.476Z,100057.28
2022-12-23T19:51:11.289Z,100068.41
2022-12-23T19:53:45.341Z,100075.78
2022-12-23T19:56:19.851Z,100072.00
2022-12-23T19:58:58.702Z,100060.84
2022-12-23T20:01:34.431Z,100054.88
2022-12-23T20:04:07.389Z,100061.88
2022-12-23T20:06:41.509Z,100065.56
2022-12-23T20:09:14.448Z,100073.03
2022-12-23T20:11:48.966Z,100067.72
2022-12-23T20:14:22.674Z,100067.94
2022-12-23T20:16:55.607Z,100065.19
2022-12-23T20:19:28.852Z,100081.25
2022-12-23T20:22:01.798Z,100077.47
2022-12-23T20:24:34.763Z,100067.63
2022-12-23T20:27:11.436Z,100071.97
2022-12-23T20:29:45.867Z,100074.94
2022-12-23T20:32:21.372Z,100080.34
2022-12-23T20:34:54.556Z,100078.47
2022-12-23T20:37:27.535Z,100080.53
2022-12-23T20:40:00.518Z,100083.34
2022-12-23T20:42:33.849Z,100084.50
2022-12-23T20:45:07.548Z,100084.38
2022-12-23T20:47:40.924Z,100083.22
2022-12-23T20:50:13.814Z,100082.63
2022-12-23T20:52:47.068Z,100083.56
2022-12-23T20:55:20.335Z,100073.16
2022-12-23T20:57:53.545Z,100073.75
2022-12-23T21:00:26.948Z,100076.66
2022-12-23T21:03:05.257Z,100079.94
2022-12-23T21:05:41.512Z,100080.41
2022-12-23T21:08:14.720Z,100077.38
2022-12-23T21:10:53.253Z,100076.03
2022-12-23T21:13:26.187Z,100069.09
2022-12-23T21:16:04.007Z,100069.44
2022-12-23T21:18:40.967Z,100076.53
2022-12-23T21:21:13.869Z,100072.56
2022-12-23T21:23:47.050Z,100075.09
2022-12-23T21:26:25.109Z,100056.28
2022-12-23T21:28:59.808Z,100072.47
2022-12-23T21:31:35.615Z,100066.31
2022-12-23T21:34:09.136Z,100071.00
2022-12-23T21:36:42.568Z,100073.25
2022-12-23T21:39:16.562Z,100064.16
2022-12-23T21:41:49.549Z,100054.09
2022-12-23T21:44:22.387Z,100048.84
2022-12-23T21:46:56.084Z,100056.66
2022-12-23T21:49:29.577Z,100059.50
2022-12-23T21:52:02.363Z,100065.28
2022-12-23T21:54:36.836Z,100073.38
2022-12-23T21:57:16.542Z,100062.22
2022-12-23T21:59:49.743Z,100064.56
2022-12-23T22:02:22.685Z,100070.78
2022-12-23T22:04:55.667Z,100060.75
2022-12-23T22:07:28.729Z,100061.41
2022-12-23T22:10:01.670Z,100059.47
2022-12-23T22:12:34.582Z,100050.94
2022-12-23T22:15:11.632Z,100048.09
2022-12-23T22:17:57.315Z,100049.38
2022-12-23T22:20:30.217Z,100050.41
2022-12-23T22:23:03.543Z,100046.22
2022-12-23T22:25:36.477Z,100046.13
2022-12-23T22:28:09.406Z,100052.00
2022-12-23T22:30:42.348Z,100046.59
2022-12-23T22:33:15.275Z,100043.91
2022-12-23T22:35:55.562Z,100045.56
2022-12-23T22:38:28.996Z,100049.66
2022-12-23T22:41:02.094Z,100046.81
2022-12-23T22:43:35.403Z,100043.41
2022-12-23T22:46:08.679Z,100052.31
2022-12-23T22:48:42.143Z,100045.84
2022-12-23T22:51:18.025Z,100048.72
2022-12-23T22:53:51.571Z,100050.78
2022-12-23T22:56:25.723Z,100055.09
2022-12-23T22:58:58.740Z,100055.06
2022-12-23T23:01:35.213Z,100054.84
2022-12-23T23:04:10.296Z,100042.44
2022-12-23T23:06:43.347Z,100042.91
2022-12-23T23:09:19.578Z,100046.88
2022-12-23T23:11:52.976Z,100038.94
2022-12-23T23:14:25.914Z,100037.94
2022-12-23T23:16:59.035Z,100029.06
2022-12-23T23:19:32.393Z,100037.28
2022-12-23T23:22:05.249Z,100028.00
2022-12-23T23:24:38.594Z,100029.00
2022-12-23T23:27:12.132Z,100023.44
2022-12-23T23:29:45.032Z,100018.09
2022-12-23T23:32:18.628Z,100021.84
2022-12-23T23:34:52.176Z,100028.28
2022-12-23T23:37:24.960Z,100019.72
2022-12-23T23:39:57.939Z,100022.22
2022-12-23T23:42:30.931Z,100009.56
2022-12-23T23:45:04.357Z,100009.63
2022-12-23T23:47:37.341Z,100003.44
2022-12-23T23:50:10.464Z,100011.53
2022-12-23T23:52:43.477Z,100002.56
2022-12-23T23:55:16.607Z,100018.41
2022-12-23T23:57:49.709Z,100013.06
